Fitchburg, MA

11:12 AM EDT on October 31, 2014 (GMT -0400)
Upper Cleghorn | Change Station
CLOSE
Current Station
Personal Weather Station
Location: Fitchburg, MA
Elevation: 722 ft
Nearby Weather Stations

Elev 722 ft 42.57 °N, 71.82 °W | Updated 13 minutes ago

Overcast
Overcast
47.7 °F
Feels Like 47 °F
N
3.1
Wind Variable Wind from West
Gusts 4.5 mph

Today
High -- | Low -- °F
--% Chance of Precip.
Yesterday
High -- | Low -- °F
Precip. -- in
7:19 AM 5:41 PM
First Quarter, 56% visible
Pressure 30.06 in
Visibility 10.0 miles
Clouds Few 3400 ft
Overcast 5000 ft
Windchill 47 °F
Dew Point 34 °F
Humidity 60%
Rainfall 0.00 in
Snow Depth Not available.
UV 1 out of 12
Pollen .20 out of 12
Air Quality Not available.
Flu Activity Not available.
METAR KFIT 311452Z AUTO 00000KT 10SM FEW034 OVC050 09/01 A3005 RMK AO2 SLP177 T00890011 50000

More Conditions Fewer Conditions

Pressure 30.06 in
Visibility 10.0 miles
Clouds Few 3400 ft
Overcast 5000 ft
Windchill 47 °F
Dew Point 34 °F
Humidity 60%
Rainfall 0.00 in
Snow Depth Not available.
UV 1 out of 12
Pollen .20 out of 12
Air Quality Not available.
Flu Activity Not available.
METAR KFIT 311452Z AUTO 00000KT 10SM FEW034 OVC050 09/01 A3005 RMK AO2 SLP177 T00890011 50000

More Conditions Fewer Conditions

10-Day Weather Forecast

Almanac

Astronomy

Oct. 31, 2014 Rise Set
Actual Time
Civil Twilight
Nautical Twilight
Astronomical Twilight
Moon
Length of Visible Light
Length of Day
Tomorrow will be .
, % of the Moon is Illuminated

Today's Extremes

State Highs State Lows

Community

WunderPhotos

Upload Photos

1,766,633 photos uploaded!

WunderBlogs® & News

Nearby

Air Quality

  Air Quality AQ Index Pollutant
Not available.

Snow Depth

Station Depth Elevation

Earthquake Activity

City Distance Mag. Time & Date
Minimum magnitude displayed is 2.5.

Coastal Water Temperatures

Place Temperature

Nearby Weather Stations